createdAt,value
2017-08-24T00:01:04.516Z,1014.03
2017-08-24T00:02:14.050Z,1014.09
2017-08-24T00:03:24.238Z,1014.07
2017-08-24T00:04:33.449Z,1014.07
2017-08-24T00:05:42.981Z,1014.05
2017-08-24T00:06:52.212Z,1014
2017-08-24T00:08:02.064Z,1013.94
2017-08-24T00:09:10.960Z,1013.96
2017-08-24T00:10:20.965Z,1013.91
2017-08-24T00:11:30.500Z,1013.93
2017-08-24T00:12:39.706Z,1013.87
2017-08-24T00:13:49.234Z,1013.83
2017-08-24T00:14:58.772Z,1013.77
2017-08-24T00:16:08.354Z,1013.81
2017-08-24T00:17:18.208Z,1013.82
2017-08-24T00:18:27.745Z,1013.75
2017-08-24T00:19:36.950Z,1013.77
2017-08-24T00:20:46.812Z,1013.76
2017-08-24T00:21:56.314Z,1013.77
2017-08-24T00:23:05.843Z,1013.75
2017-08-24T00:24:15.052Z,1013.76
2017-08-24T00:25:24.585Z,1013.73
2017-08-24T00:26:34.113Z,1013.73
2017-08-24T00:27:44.013Z,1013.7
2017-08-24T00:28:53.221Z,1013.75
2017-08-24T00:30:03.397Z,1013.73
2017-08-24T00:31:13.255Z,1013.72
2017-08-24T00:32:23.106Z,1013.7
2017-08-24T00:33:32.890Z,1013.69
2017-08-24T00:34:42.742Z,1013.68
2017-08-24T00:35:52.268Z,1013.67
2017-08-24T00:37:02.122Z,1013.65
2017-08-24T00:38:11.329Z,1013.68
2017-08-24T00:39:20.372Z,1013.65
2017-08-24T00:40:30.230Z,1013.64
2017-08-24T00:41:39.765Z,1013.65
2017-08-24T00:42:48.645Z,1013.63
2017-08-24T00:43:58.175Z,1013.62
2017-08-24T00:45:07.532Z,1013.58
2017-08-24T00:46:17.059Z,1013.55
2017-08-24T00:47:26.264Z,1013.57
2017-08-24T00:48:35.790Z,1013.54
2017-08-24T00:49:45.543Z,1013.51
2017-08-24T00:50:55.423Z,1013.53
2017-08-24T00:52:04.955Z,1013.55
2017-08-24T00:53:14.482Z,1013.59
2017-08-24T00:54:24.023Z,1013.48
2017-08-24T00:55:34.198Z,1013.48
2017-08-24T00:56:44.360Z,1013.47
2017-08-24T00:57:53.576Z,1013.41
2017-08-24T00:59:03.433Z,1013.39
2017-08-24T01:00:12.638Z,1013.35
2017-08-24T01:01:22.166Z,1013.38
2017-08-24T01:02:32.341Z,1013.31
2017-08-24T01:03:42.519Z,1013.34
2017-08-24T01:04:51.758Z,1013.34
2017-08-24T01:06:00.971Z,1013.29
2017-08-24T01:07:10.179Z,1013.26
2017-08-24T01:08:19.686Z,1013.25
2017-08-24T01:09:28.901Z,1013.21
2017-08-24T01:10:38.761Z,1013.23
2017-08-24T01:11:48.305Z,1013.22
2017-08-24T01:12:57.511Z,1013.21
2017-08-24T01:14:07.686Z,1013.15
2017-08-24T01:15:16.891Z,1013.17
2017-08-24T01:16:25.777Z,1013.12
2017-08-24T01:17:34.978Z,1013.13
2017-08-24T01:18:43.868Z,1013.13
2017-08-24T01:19:53.077Z,1013.12
2017-08-24T01:21:02.285Z,1013.11
2017-08-24T01:22:11.812Z,1013.1
2017-08-24T01:23:21.340Z,1013.1
2017-08-24T01:24:31.194Z,1013.05
2017-08-24T01:25:40.127Z,1013.08
2017-08-24T01:26:49.656Z,1013.07
2017-08-24T01:27:59.220Z,1013.05
2017-08-24T01:29:08.751Z,1013.09
2017-08-24T01:30:18.288Z,1013.08
2017-08-24T01:31:27.545Z,1013.07
2017-08-24T01:32:36.756Z,1013.08
2017-08-24T01:33:46.621Z,1013.07
2017-08-24T01:34:56.149Z,1013
2017-08-24T01:36:05.681Z,1013.04
2017-08-24T01:37:15.261Z,1013.02
2017-08-24T01:38:25.120Z,1012.97
2017-08-24T01:39:34.645Z,1012.94
2017-08-24T01:40:44.204Z,1012.89
2017-08-24T01:41:53.739Z,1012.95
2017-08-24T01:43:02.995Z,1012.93
2017-08-24T01:44:12.852Z,1012.87
2017-08-24T01:45:22.703Z,1012.88
2017-08-24T01:46:32.237Z,1012.85
2017-08-24T01:47:42.093Z,1012.86
2017-08-24T01:48:51.993Z,1012.88
2017-08-24T01:50:01.203Z,1012.86
2017-08-24T01:51:10.407Z,1012.95
2017-08-24T01:52:19.934Z,1012.93
2017-08-24T01:53:29.138Z,1012.99
2017-08-24T01:54:39.150Z,1012.99
2017-08-24T01:55:48.033Z,1013
2017-08-24T01:56:57.243Z,1012.95
2017-08-24T01:58:07.099Z,1012.92
2017-08-24T01:59:16.643Z,1012.92
2017-08-24T02:00:26.322Z,1012.88
2017-08-24T02:01:36.172Z,1012.83
2017-08-24T02:02:46.032Z,1012.82
2017-08-24T02:03:56.211Z,1012.81
2017-08-24T02:05:06.066Z,1012.79
2017-08-24T02:06:15.896Z,1012.77
2017-08-24T02:07:26.080Z,1012.82
2017-08-24T02:08:35.283Z,1012.82
2017-08-24T02:09:44.816Z,1012.83
2017-08-24T02:10:54.343Z,1012.77
2017-08-24T02:12:03.698Z,1012.78
2017-08-24T02:13:13.552Z,1012.81
2017-08-24T02:14:23.435Z,1012.78
2017-08-24T02:15:33.292Z,1012.78
2017-08-24T02:16:42.203Z,1012.76
2017-08-24T02:17:52.217Z,1012.8
2017-08-24T02:19:01.104Z,1012.79
2017-08-24T02:20:10.957Z,1012.66
2017-08-24T02:21:20.487Z,1012.64
2017-08-24T02:22:29.369Z,1012.63
2017-08-24T02:23:39.371Z,1012.72
2017-08-24T02:24:48.899Z,1012.77
2017-08-24T02:25:58.106Z,1012.73
2017-08-24T02:27:07.969Z,1012.72
2017-08-24T02:28:17.179Z,1012.73
2017-08-24T02:29:27.084Z,1012.67
2017-08-24T02:30:35.969Z,1012.65
2017-08-24T02:31:45.501Z,1012.64
2017-08-24T02:32:55.031Z,1012.62
2017-08-24T02:34:04.559Z,1012.6
2017-08-24T02:35:14.416Z,1012.62
2017-08-24T02:36:24.617Z,1012.51
2017-08-24T02:37:34.470Z,1012.41
2017-08-24T02:38:44.003Z,1012.48
2017-08-24T02:39:52.886Z,1012.35
2017-08-24T02:41:03.233Z,1012.39
2017-08-24T02:42:13.088Z,1012.37
2017-08-24T02:43:22.944Z,1012.31
2017-08-24T02:44:32.483Z,1012.34
2017-08-24T02:45:42.656Z,1012.41
2017-08-24T02:46:52.249Z,1012.42
2017-08-24T02:48:01.782Z,1012.41
2017-08-24T02:49:11.319Z,1012.36
2017-08-24T02:50:21.171Z,1012.34
2017-08-24T02:51:31.022Z,1012.31
2017-08-24T02:52:40.702Z,1012.27
2017-08-24T02:53:50.228Z,1012.31
2017-08-24T02:54:59.434Z,1012.26
2017-08-24T02:56:09.629Z,1012.22
2017-08-24T02:57:18.878Z,1012.22
2017-08-24T02:58:28.231Z,1012.15
2017-08-24T02:59:37.805Z,1012.07
2017-08-24T03:00:47.338Z,1012.04
2017-08-24T03:01:56.866Z,1011.98
2017-08-24T03:03:06.396Z,1011.97
2017-08-24T03:04:15.976Z,1011.95
2017-08-24T03:05:24.863Z,1011.91
2017-08-24T03:06:35.040Z,1011.96
2017-08-24T03:07:44.567Z,1011.98
2017-08-24T03:08:53.779Z,1012
2017-08-24T03:10:03.785Z,1012
2017-08-24T03:11:12.668Z,1011.94
2017-08-24T03:12:22.196Z,1011.99
2017-08-24T03:13:31.403Z,1011.96
2017-08-24T03:14:41.254Z,1011.99
2017-08-24T03:15:50.780Z,1012.02
2017-08-24T03:17:00.633Z,1012.11
2017-08-24T03:18:10.159Z,1012.11
2017-08-24T03:19:19.364Z,1012.18
2017-08-24T03:20:29.230Z,1012.24
2017-08-24T03:21:38.911Z,1012.26
2017-08-24T03:22:48.115Z,1012.37
2017-08-24T03:23:57.965Z,1012.54
2017-08-24T03:25:07.499Z,1012.61
2017-08-24T03:26:16.707Z,1012.69
2017-08-24T03:27:25.643Z,1012.67
2017-08-24T03:28:35.170Z,1012.63
2017-08-24T03:29:44.697Z,1012.58
2017-08-24T03:30:54.227Z,1012.64
2017-08-24T03:32:04.095Z,1012.69
2017-08-24T03:33:13.954Z,1012.66
2017-08-24T03:34:22.853Z,1012.65
2017-08-24T03:35:32.056Z,1012.52
2017-08-24T03:36:41.585Z,1012.48
2017-08-24T03:37:51.113Z,1012.41
2017-08-24T03:39:01.048Z,1012.53
2017-08-24T03:40:10.575Z,1012.6
2017-08-24T03:41:20.108Z,1012.5
2017-08-24T03:42:29.312Z,1012.48
2017-08-24T03:43:38.519Z,1012.59
2017-08-24T03:44:48.053Z,1012.68
2017-08-24T03:45:57.914Z,1012.71
2017-08-24T03:47:07.122Z,1012.76
2017-08-24T03:48:16.656Z,1012.86
2017-08-24T03:49:26.510Z,1012.95
2017-08-24T03:50:36.093Z,1012.98
2017-08-24T03:51:44.978Z,1013.02
2017-08-24T03:52:54.507Z,1012.97
2017-08-24T03:54:04.687Z,1012.87
2017-08-24T03:55:13.893Z,1012.84
2017-08-24T03:56:23.250Z,1012.75
2017-08-24T03:57:32.136Z,1012.79
2017-08-24T03:58:41.667Z,1012.83
2017-08-24T03:59:51.194Z,1012.8
2017-08-24T04:01:00.399Z,1012.76
2017-08-24T04:02:10.575Z,1012.71
2017-08-24T04:03:19.783Z,1012.66
2017-08-24T04:04:29.316Z,1012.56
2017-08-24T04:05:39.165Z,1012.46
2017-08-24T04:06:48.696Z,1012.45
2017-08-24T04:07:59.176Z,1012.36
2017-08-24T04:09:08.713Z,1012.21
2017-08-24T04:10:17.920Z,1012.12
2017-08-24T04:11:27.459Z,1012.15
2017-08-24T04:12:36.988Z,1012.14
2017-08-24T04:13:46.944Z,1012.19
2017-08-24T04:14:55.827Z,1012.14
2017-08-24T04:16:06.004Z,1012.16
2017-08-24T04:17:15.217Z,1012.26
2017-08-24T04:18:24.097Z,1012.42
2017-08-24T04:19:33.998Z,1012.41
2017-08-24T04:20:43.204Z,1012.27
2017-08-24T04:21:52.086Z,1012.3
2017-08-24T04:23:01.616Z,1012.29
2017-08-24T04:24:11.469Z,1012.41
2017-08-24T04:25:20.724Z,1012.56
2017-08-24T04:26:29.934Z,1012.58
2017-08-24T04:27:39.139Z,1012.5
2017-08-24T04:28:48.673Z,1012.43
2017-08-24T04:29:58.204Z,1012.49
2017-08-24T04:31:07.820Z,1012.53
2017-08-24T04:32:17.025Z,1012.68
2017-08-24T04:33:25.904Z,1012.85
2017-08-24T04:34:35.437Z,1012.76
2017-08-24T04:35:44.971Z,1012.67
2017-08-24T04:36:54.653Z,1012.62
2017-08-24T04:38:03.541Z,1012.72
2017-08-24T04:39:12.753Z,1012.72
2017-08-24T04:40:22.602Z,1012.77
2017-08-24T04:41:32.454Z,1012.75
2017-08-24T04:42:42.740Z,1012.75
2017-08-24T04:43:52.273Z,1012.75
2017-08-24T04:45:01.837Z,1012.81
2017-08-24T04:46:11.368Z,1012.77
2017-08-24T04:47:20.576Z,1012.74
2017-08-24T04:48:29.882Z,1012.8
2017-08-24T04:49:40.158Z,1012.86
2017-08-24T04:50:49.369Z,1012.91
2017-08-24T04:51:58.573Z,1012.96
2017-08-24T04:53:07.784Z,1013.02
2017-08-24T04:54:17.242Z,1012.96
2017-08-24T04:55:26.459Z,1013
2017-08-24T04:56:35.989Z,1013.03
2017-08-24T04:57:45.194Z,1013
2017-08-24T04:58:54.396Z,1012.9
2017-08-24T05:00:03.652Z,1012.93
2017-08-24T05:01:12.572Z,1012.92
2017-08-24T05:02:22.757Z,1012.85
2017-08-24T05:03:32.286Z,1012.9
2017-08-24T05:04:41.887Z,1012.87
2017-08-24T05:05:51.074Z,1012.9
2017-08-24T05:07:00.288Z,1012.92
2017-08-24T05:08:10.470Z,1012.87
2017-08-24T05:09:20.007Z,1012.86
2017-08-24T05:10:29.541Z,1012.92
2017-08-24T05:11:39.150Z,1012.97
2017-08-24T05:12:48.684Z,1012.99
2017-08-24T05:13:58.222Z,1012.97
2017-08-24T05:15:08.072Z,1012.98
2017-08-24T05:16:17.939Z,1013.09
2017-08-24T05:17:28.165Z,1013.1
2017-08-24T05:18:37.055Z,1013.1
2017-08-24T05:19:46.591Z,1013.1
2017-08-24T05:20:55.823Z,1013.1
2017-08-24T05:22:05.033Z,1013.13
2017-08-24T05:23:14.713Z,1013.08
2017-08-24T05:24:24.574Z,1013.09
2017-08-24T05:25:34.102Z,1013.07
2017-08-24T05:26:43.309Z,1013.05
2017-08-24T05:27:52.194Z,1013.06
2017-08-24T05:29:01.287Z,1013.07
2017-08-24T05:30:10.495Z,1013.09
2017-08-24T05:31:20.026Z,1013.03
2017-08-24T05:32:29.881Z,1013.07
2017-08-24T05:33:40.063Z,1013.08
2017-08-24T05:34:49.746Z,1013.02
2017-08-24T05:35:59.282Z,1012.99
2017-08-24T05:37:09.136Z,1012.99
2017-08-24T05:38:18.342Z,1013.02
2017-08-24T05:39:27.876Z,1012.98
2017-08-24T05:40:38.203Z,1013.02
2017-08-24T05:41:47.734Z,1013.07
2017-08-24T05:42:56.945Z,1013.07
2017-08-24T05:44:06.483Z,1013.05
2017-08-24T05:45:16.013Z,1013.05
2017-08-24T05:46:25.602Z,1013.08
2017-08-24T05:47:35.139Z,1013.05
2017-08-24T05:48:45.001Z,1013.1
2017-08-24T05:49:53.890Z,1013.08
2017-08-24T05:51:03.422Z,1013.09
2017-08-24T05:52:13.602Z,1013.15
2017-08-24T05:53:23.128Z,1013.19
2017-08-24T05:54:32.661Z,1013.19
2017-08-24T05:55:41.550Z,1013.2
2017-08-24T05:56:51.082Z,1013.19
2017-08-24T05:58:00.390Z,1013.22
2017-08-24T05:59:10.245Z,1013.25
2017-08-24T06:00:19.478Z,1013.25
2017-08-24T06:01:29.014Z,1013.25
2017-08-24T06:02:38.873Z,1013.22
2017-08-24T06:03:48.707Z,1013.24
2017-08-24T06:04:58.242Z,1013.22
2017-08-24T06:06:07.127Z,1013.26
2017-08-24T06:07:16.338Z,1013.25
2017-08-24T06:08:26.198Z,1013.29
2017-08-24T06:09:35.882Z,1013.27
2017-08-24T06:10:45.417Z,1013.26
2017-08-24T06:11:54.950Z,1013.25
2017-08-24T06:13:05.125Z,1013.25
2017-08-24T06:14:14.664Z,1013.21
2017-08-24T06:15:24.346Z,1013.26
2017-08-24T06:16:33.556Z,1013.3
2017-08-24T06:17:43.086Z,1013.28
2017-08-24T06:18:52.294Z,1013.32
2017-08-24T06:20:02.150Z,1013.27
2017-08-24T06:21:11.798Z,1013.28
2017-08-24T06:22:21.655Z,1013.25
2017-08-24T06:23:30.876Z,1013.27
2017-08-24T06:24:40.085Z,1013.27
2017-08-24T06:25:49.942Z,1013.3
2017-08-24T06:26:59.350Z,1013.27
2017-08-24T06:28:08.235Z,1013.31
2017-08-24T06:29:17.445Z,1013.32
2017-08-24T06:30:26.980Z,1013.31
2017-08-24T06:31:35.866Z,1013.35
2017-08-24T06:32:45.385Z,1013.33
2017-08-24T06:33:55.559Z,1013.3
2017-08-24T06:35:05.093Z,1013.36
2017-08-24T06:36:14.960Z,1013.35
2017-08-24T06:37:23.849Z,1013.33
2017-08-24T06:38:33.308Z,1013.33
2017-08-24T06:39:42.197Z,1013.35
2017-08-24T06:40:51.730Z,1013.38
2017-08-24T06:42:00.612Z,1013.39
2017-08-24T06:43:10.143Z,1013.35
2017-08-24T06:44:19.454Z,1013.4
2017-08-24T06:45:29.631Z,1013.41
2017-08-24T06:46:39.166Z,1013.44
2017-08-24T06:47:48.705Z,1013.41
2017-08-24T06:48:57.920Z,1013.46
2017-08-24T06:50:07.778Z,1013.48
2017-08-24T06:51:17.322Z,1013.52
2017-08-24T06:52:26.558Z,1013.47
2017-08-24T06:53:35.764Z,1013.52
2017-08-24T06:54:45.622Z,1013.46
2017-08-24T06:55:55.639Z,1013.5
2017-08-24T06:57:05.171Z,1013.5
2017-08-24T06:58:14.706Z,1013.5
2017-08-24T06:59:24.241Z,1013.51
2017-08-24T07:00:33.776Z,1013.53
2017-08-24T07:01:43.136Z,1013.56
2017-08-24T07:02:52.670Z,1013.56
2017-08-24T07:04:02.529Z,1013.59
2017-08-24T07:05:13.042Z,1013.53
2017-08-24T07:06:22.577Z,1013.58
2017-08-24T07:07:31.616Z,1013.61
2017-08-24T07:08:41.159Z,1013.66
2017-08-24T07:09:50.373Z,1013.64
2017-08-24T07:11:00.229Z,1013.63
2017-08-24T07:12:10.088Z,1013.64
2017-08-24T07:13:20.094Z,1013.63
2017-08-24T07:14:28.984Z,1013.68
2017-08-24T07:15:38.190Z,1013.67
2017-08-24T07:16:47.076Z,1013.64
2017-08-24T07:17:56.287Z,1013.67
2017-08-24T07:19:05.970Z,1013.71
2017-08-24T07:20:15.506Z,1013.76
2017-08-24T07:21:25.043Z,1013.8
2017-08-24T07:22:34.578Z,1013.78
2017-08-24T07:23:43.789Z,1013.81
2017-08-24T07:24:53.047Z,1013.78
2017-08-24T07:26:02.593Z,1013.81
2017-08-24T07:27:12.125Z,1013.85
2017-08-24T07:28:22.317Z,1013.82
2017-08-24T07:29:32.175Z,1013.79
2017-08-24T07:30:42.336Z,1013.83
2017-08-24T07:31:51.555Z,1013.82
2017-08-24T07:33:01.755Z,1013.8
2017-08-24T07:34:11.609Z,1013.81
2017-08-24T07:35:21.151Z,1013.85
2017-08-24T07:36:30.089Z,1013.84
2017-08-24T07:37:39.622Z,1013.83
2017-08-24T07:38:49.810Z,1013.84
2017-08-24T07:39:59.662Z,1013.81
2017-08-24T07:41:09.571Z,1013.88
2017-08-24T07:42:19.828Z,1013.86
2017-08-24T07:43:29.365Z,1013.85
2017-08-24T07:44:39.225Z,1013.87
2017-08-24T07:45:48.767Z,1013.92
2017-08-24T07:46:58.944Z,1013.91
2017-08-24T07:48:08.528Z,1013.99
2017-08-24T07:49:17.740Z,1013.96
2017-08-24T07:50:27.286Z,1013.94
2017-08-24T07:51:36.820Z,1013.98
2017-08-24T07:52:46.686Z,1013.98
2017-08-24T07:53:56.377Z,1014.03
2017-08-24T07:55:05.908Z,1014.01
2017-08-24T07:56:15.121Z,1014.01
2017-08-24T07:57:24.980Z,1013.94
2017-08-24T07:58:33.867Z,1013.98
2017-08-24T07:59:43.603Z,1013.95
2017-08-24T08:00:53.137Z,1014.03
2017-08-24T08:02:02.349Z,1013.99
2017-08-24T08:03:11.237Z,1014.1
2017-08-24T08:04:20.779Z,1014.05
2017-08-24T08:05:30.139Z,1014.07
2017-08-24T08:06:39.997Z,1014.21
2017-08-24T08:07:49.537Z,1014.11
2017-08-24T08:08:59.070Z,1014.15
2017-08-24T08:10:07.961Z,1014.15
2017-08-24T08:11:18.421Z,1014.22
2017-08-24T08:12:28.290Z,1014.15
2017-08-24T08:13:37.501Z,1014.14
2017-08-24T08:14:46.717Z,1014.14
2017-08-24T08:15:56.255Z,1014.12
2017-08-24T08:17:05.623Z,1014.16
2017-08-24T08:18:14.833Z,1014.12
2017-08-24T08:19:24.057Z,1014.16
2017-08-24T08:20:33.594Z,1014.19
2017-08-24T08:21:42.481Z,1014.21
2017-08-24T08:22:52.017Z,1014.23
2017-08-24T08:24:01.226Z,1014.22
2017-08-24T08:25:10.764Z,1014.25
2017-08-24T08:26:19.657Z,1014.28
2017-08-24T08:27:28.871Z,1014.3
2017-08-24T08:28:38.507Z,1014.33
2017-08-24T08:29:47.399Z,1014.35
2017-08-24T08:30:56.612Z,1014.34
2017-08-24T08:32:05.498Z,1014.4
2017-08-24T08:33:15.036Z,1014.5
2017-08-24T08:34:24.894Z,1014.47
2017-08-24T08:35:34.431Z,1014.5
2017-08-24T08:36:43.692Z,1014.48
2017-08-24T08:37:53.235Z,1014.51
2017-08-24T08:39:02.772Z,1014.47
2017-08-24T08:40:12.778Z,1014.5
2017-08-24T08:41:22.635Z,1014.58
2017-08-24T08:42:31.856Z,1014.55
2017-08-24T08:43:41.709Z,1014.54
2017-08-24T08:44:50.633Z,1014.56
2017-08-24T08:45:59.412Z,1014.55
2017-08-24T08:47:08.265Z,1014.53
2017-08-24T08:48:17.116Z,1014.54
2017-08-24T08:49:25.966Z,1014.51
2017-08-24T08:50:34.829Z,1014.58
2017-08-24T08:51:43.830Z,1014.54
2017-08-24T08:52:53.018Z,1014.67
2017-08-24T08:54:01.868Z,1014.54
2017-08-24T08:55:10.733Z,1014.63
2017-08-24T08:56:19.582Z,1014.61
2017-08-24T08:57:28.483Z,1014.63
2017-08-24T08:58:37.334Z,1014.64
2017-08-24T08:59:46.184Z,1014.68
2017-08-24T09:00:55.373Z,1014.66
2017-08-24T09:02:04.221Z,1014.65
2017-08-24T09:03:13.222Z,1014.72
2017-08-24T09:04:22.071Z,1014.67
2017-08-24T09:05:30.929Z,1014.68
2017-08-24T09:06:40.112Z,1014.73
2017-08-24T09:07:48.961Z,1014.76
2017-08-24T09:08:58.114Z,1014.81
2017-08-24T09:10:06.963Z,1014.73
2017-08-24T09:11:15.814Z,1014.71
2017-08-24T09:12:24.665Z,1014.75
2017-08-24T09:13:33.517Z,1014.76
2017-08-24T09:14:42.519Z,1014.74
2017-08-24T09:15:51.371Z,1014.73
2017-08-24T09:17:00.220Z,1014.8
2017-08-24T09:18:09.069Z,1014.81
2017-08-24T09:19:17.923Z,1014.78
2017-08-24T09:20:26.930Z,1014.8
2017-08-24T09:21:36.113Z,1014.79
2017-08-24T09:22:44.962Z,1014.81
2017-08-24T09:23:53.814Z,1014.85
2017-08-24T09:25:02.997Z,1014.84
2017-08-24T09:26:11.998Z,1014.84
2017-08-24T09:27:21.184Z,1014.88
2017-08-24T09:28:30.037Z,1014.87
2017-08-24T09:29:38.893Z,1014.91
2017-08-24T09:30:47.744Z,1014.9
2017-08-24T09:31:56.900Z,1014.9
2017-08-24T09:33:05.751Z,1014.88
2017-08-24T09:34:14.603Z,1014.87
2017-08-24T09:35:23.456Z,1014.81
2017-08-24T09:36:32.306Z,1014.79
2017-08-24T09:37:41.255Z,1014.87
2017-08-24T09:38:50.108Z,1014.9
2017-08-24T09:39:58.956Z,1014.89
2017-08-24T09:41:07.807Z,1014.98
2017-08-24T09:42:16.993Z,1014.97
2017-08-24T09:43:26.145Z,1014.93
2017-08-24T09:44:35.329Z,1014.93
2017-08-24T09:45:44.179Z,1014.94
2017-08-24T09:46:53.371Z,1014.94
2017-08-24T09:48:02.221Z,1014.9
2017-08-24T09:49:11.225Z,1014.96
2017-08-24T09:50:20.078Z,1014.94
2017-08-24T09:51:28.927Z,1015.01
2017-08-24T09:52:38.113Z,1014.96
2017-08-24T09:53:46.967Z,1015.08
2017-08-24T09:54:55.821Z,1014.99
2017-08-24T09:56:04.674Z,1015.02
2017-08-24T09:57:13.529Z,1014.97
2017-08-24T09:58:22.379Z,1014.97
2017-08-24T09:59:31.564Z,1015.01
2017-08-24T10:00:40.567Z,1015.09
2017-08-24T10:01:49.417Z,1015.12
2017-08-24T10:02:58.266Z,1015.03
2017-08-24T10:04:07.116Z,1015.05
2017-08-24T10:05:15.973Z,1015.08
2017-08-24T10:06:25.122Z,1015.09
2017-08-24T10:07:33.970Z,1015.13
2017-08-24T10:08:42.826Z,1015.14
2017-08-24T10:09:52.010Z,1015.13
2017-08-24T10:11:00.857Z,1015.1
2017-08-24T10:12:09.808Z,1015.09
2017-08-24T10:13:18.661Z,1015.1
2017-08-24T10:14:27.513Z,1015.11
2017-08-24T10:15:36.362Z,1015.12
2017-08-24T10:16:45.213Z,1015.11
2017-08-24T10:17:54.217Z,1015.19
2017-08-24T10:19:03.075Z,1015.09
2017-08-24T10:20:12.264Z,1015.11
2017-08-24T10:21:21.483Z,1015.15
2017-08-24T10:22:30.334Z,1015.13
2017-08-24T10:23:39.192Z,1015.11
2017-08-24T10:24:48.382Z,1015.13
2017-08-24T10:25:57.239Z,1015.1
2017-08-24T10:27:06.088Z,1015.05
2017-08-24T10:28:14.962Z,1015.07
2017-08-24T10:29:23.966Z,1015.07
2017-08-24T10:30:32.838Z,1014.99
2017-08-24T10:31:41.700Z,1015.04
2017-08-24T10:32:50.550Z,1015
2017-08-24T10:33:59.400Z,1015.03
2017-08-24T10:35:08.421Z,1014.95
2017-08-24T10:36:17.256Z,1015.08
2017-08-24T10:37:26.111Z,1015.09
2017-08-24T10:38:35.294Z,1015.14
2017-08-24T10:39:44.149Z,1015.15
2017-08-24T10:40:53.151Z,1015.16
2017-08-24T10:42:02.003Z,1015.15
2017-08-24T10:43:10.857Z,1015.12
2017-08-24T10:44:19.709Z,1015.12
2017-08-24T10:45:28.560Z,1015.16
2017-08-24T10:46:38.154Z,1015.12
2017-08-24T10:47:47.006Z,1015.22
2017-08-24T10:48:55.864Z,1015.14
2017-08-24T10:50:05.048Z,1015.15
2017-08-24T10:51:13.901Z,1015.25
2017-08-24T10:52:22.856Z,1015.18
2017-08-24T10:53:31.706Z,1015.23
2017-08-24T10:54:40.560Z,1015.24
2017-08-24T10:55:49.413Z,1015.19
2017-08-24T10:56:58.266Z,1015.2
2017-08-24T10:58:07.269Z,1015.17
2017-08-24T10:59:16.123Z,1015.2
2017-08-24T11:00:24.977Z,1015.25
2017-08-24T11:01:33.831Z,1015.21
2017-08-24T11:02:42.683Z,1015.2
2017-08-24T11:03:51.835Z,1015.19
2017-08-24T11:05:00.691Z,1015.28
2017-08-24T11:06:09.547Z,1015.28
2017-08-24T11:07:18.753Z,1015.27
2017-08-24T11:08:27.604Z,1015.35
2017-08-24T11:09:36.616Z,1015.32
2017-08-24T11:10:45.461Z,1015.39
2017-08-24T11:11:54.314Z,1015.38
2017-08-24T11:13:03.501Z,1015.37
2017-08-24T11:14:12.355Z,1015.3
2017-08-24T11:15:21.258Z,1015.34
2017-08-24T11:16:30.109Z,1015.36
2017-08-24T11:17:38.961Z,1015.34
2017-08-24T11:18:47.815Z,1015.34
2017-08-24T11:19:56.668Z,1015.34
2017-08-24T11:21:05.619Z,1015.36
2017-08-24T11:22:14.803Z,1015.31
2017-08-24T11:23:23.655Z,1015.34
2017-08-24T11:24:32.837Z,1015.37
2017-08-24T11:25:41.689Z,1015.32
2017-08-24T11:26:50.924Z,1015.38
2017-08-24T11:27:59.779Z,1015.4
2017-08-24T11:29:08.630Z,1015.38
2017-08-24T11:30:17.484Z,1015.41
2017-08-24T11:31:26.336Z,1015.33
2017-08-24T11:32:35.340Z,1015.34
2017-08-24T11:33:44.192Z,1015.34
2017-08-24T11:34:53.054Z,1015.41
2017-08-24T11:36:01.906Z,1015.42
2017-08-24T11:37:11.097Z,1015.48
2017-08-24T11:38:20.201Z,1015.45
2017-08-24T11:39:29.055Z,1015.45
2017-08-24T11:40:37.907Z,1015.45
2017-08-24T11:41:46.757Z,1015.43
2017-08-24T11:42:55.608Z,1015.37
2017-08-24T11:44:04.608Z,1015.4
2017-08-24T11:45:13.463Z,1015.41
2017-08-24T11:46:22.312Z,1015.4
2017-08-24T11:47:31.166Z,1015.36
2017-08-24T11:48:40.017Z,1015.34
2017-08-24T11:49:48.866Z,1015.4
2017-08-24T11:50:58.053Z,1015.41
2017-08-24T11:52:06.909Z,1015.41
2017-08-24T11:53:15.759Z,1015.37
2017-08-24T11:54:24.613Z,1015.37
2017-08-24T11:55:33.515Z,1015.45
2017-08-24T11:56:42.372Z,1015.43
2017-08-24T11:57:51.556Z,1015.48
2017-08-24T11:59:00.408Z,1015.51
2017-08-24T12:00:09.261Z,1015.49
2017-08-24T12:01:18.113Z,1015.49
2017-08-24T12:02:26.966Z,1015.51
2017-08-24T12:03:35.819Z,1015.46
2017-08-24T12:04:44.720Z,1015.5
2017-08-24T12:05:53.572Z,1015.5
2017-08-24T12:07:02.907Z,1015.5
2017-08-24T12:08:12.094Z,1015.52
2017-08-24T12:09:20.949Z,1015.46
2017-08-24T12:10:29.803Z,1015.46
2017-08-24T12:11:38.989Z,1015.43
2017-08-24T12:12:47.996Z,1015.45
2017-08-24T12:13:56.850Z,1015.48
2017-08-24T12:15:05.854Z,1015.43
2017-08-24T12:16:14.709Z,1015.45
2017-08-24T12:17:23.562Z,1015.47
2017-08-24T12:18:32.566Z,1015.51
2017-08-24T12:19:41.419Z,1015.54
2017-08-24T12:20:50.272Z,1015.53
2017-08-24T12:21:59.127Z,1015.62
2017-08-24T12:23:07.982Z,1015.56
2017-08-24T12:24:16.991Z,1015.58
2017-08-24T12:25:26.177Z,1015.54
2017-08-24T12:26:35.035Z,1015.56
2017-08-24T12:27:43.895Z,1015.6
2017-08-24T12:28:52.748Z,1015.54
2017-08-24T12:30:01.756Z,1015.51
2017-08-24T12:31:10.609Z,1015.58
2017-08-24T12:32:19.465Z,1015.52
2017-08-24T12:33:28.322Z,1015.58
2017-08-24T12:34:37.180Z,1015.5
2017-08-24T12:35:46.286Z,1015.48
2017-08-24T12:36:55.142Z,1015.49
2017-08-24T12:38:04.000Z,1015.54
2017-08-24T12:39:12.853Z,1015.57
2017-08-24T12:40:21.706Z,1015.59
2017-08-24T12:41:30.660Z,1015.58
2017-08-24T12:42:39.514Z,1015.6
2017-08-24T12:43:48.371Z,1015.61
2017-08-24T12:44:57.223Z,1015.66
2017-08-24T12:46:06.078Z,1015.68
2017-08-24T12:47:14.943Z,1015.69
2017-08-24T12:48:23.795Z,1015.67
2017-08-24T12:49:32.650Z,1015.67
2017-08-24T12:50:41.506Z,1015.68
2017-08-24T12:51:50.360Z,1015.7
2017-08-24T12:52:59.365Z,1015.68
2017-08-24T12:54:08.222Z,1015.71
2017-08-24T12:55:17.409Z,1015.68
2017-08-24T12:56:26.595Z,1015.71
2017-08-24T12:57:35.454Z,1015.74
2017-08-24T12:58:44.410Z,1015.73
2017-08-24T12:59:53.266Z,1015.71
2017-08-24T13:01:02.122Z,1015.77
2017-08-24T13:02:10.977Z,1015.75
2017-08-24T13:03:19.832Z,1015.69
2017-08-24T13:04:28.851Z,1015.76
2017-08-24T13:05:37.728Z,1015.75
2017-08-24T13:06:46.582Z,1015.71
2017-08-24T13:07:55.437Z,1015.67
2017-08-24T13:09:04.288Z,1015.69
2017-08-24T13:10:13.244Z,1015.73
2017-08-24T13:11:22.428Z,1015.69
2017-08-24T13:12:31.281Z,1015.63
2017-08-24T13:13:40.139Z,1015.66
2017-08-24T13:14:48.995Z,1015.68
2017-08-24T13:15:57.852Z,1015.7
2017-08-24T13:17:06.708Z,1015.7
2017-08-24T13:18:15.901Z,1015.74
2017-08-24T13:19:24.759Z,1015.73
2017-08-24T13:20:33.612Z,1015.68
2017-08-24T13:21:42.614Z,1015.68
2017-08-24T13:22:51.467Z,1015.68
2017-08-24T13:24:00.323Z,1015.75
2017-08-24T13:25:09.176Z,1015.69
2017-08-24T13:26:18.030Z,1015.69
2017-08-24T13:27:26.940Z,1015.7
2017-08-24T13:28:35.798Z,1015.67
2017-08-24T13:29:44.650Z,1015.65
2017-08-24T13:30:53.513Z,1015.66
2017-08-24T13:32:02.371Z,1015.62
2017-08-24T13:33:11.709Z,1015.69
2017-08-24T13:34:20.570Z,1015.7
2017-08-24T13:35:29.431Z,1015.65
2017-08-24T13:36:38.286Z,1015.66
2017-08-24T13:37:47.146Z,1015.67
2017-08-24T13:38:56.250Z,1015.67
2017-08-24T13:40:05.105Z,1015.65
2017-08-24T13:41:14.299Z,1015.64
2017-08-24T13:42:23.155Z,1015.59
2017-08-24T13:43:32.008Z,1015.64
2017-08-24T13:44:40.916Z,1015.59
2017-08-24T13:45:49.772Z,1015.61
2017-08-24T13:46:58.629Z,1015.65
2017-08-24T13:48:07.486Z,1015.61
2017-08-24T13:49:16.340Z,1015.56
2017-08-24T13:50:25.530Z,1015.62
2017-08-24T13:51:34.405Z,1015.61
2017-08-24T13:52:43.265Z,1015.62
2017-08-24T13:53:52.130Z,1015.64
2017-08-24T13:55:01.007Z,1015.7
2017-08-24T13:56:10.192Z,1015.71
2017-08-24T13:57:19.049Z,1015.7
2017-08-24T13:58:27.928Z,1015.8
2017-08-24T13:59:36.800Z,1015.65
2017-08-24T14:00:45.704Z,1015.69
2017-08-24T14:01:54.734Z,1016.03